sensor_id;sensor_type;location;lat;lon;timestamp;temperature;humidity
5222;DHT22;2630;52.036;8.514;2022-07-03T00:01:29;18.60;99.90
5222;DHT22;2630;52.036;8.514;2022-07-03T00:16:04;18.50;99.90
5222;DHT22;2630;52.036;8.514;2022-07-03T00:18:30;18.50;99.90
5222;DHT22;2630;52.036;8.514;2022-07-03T00:21:04;18.60;99.90
5222;DHT22;2630;52.036;8.514;2022-07-03T00:23:38;18.60;99.90
5222;DHT22;2630;52.036;8.514;2022-07-03T00:26:05;18.50;99.90
5222;DHT22;2630;52.036;8.514;2022-07-03T00:28:32;18.50;99.90
5222;DHT22;2630;52.036;8.514;2022-07-03T00:33:26;18.80;99.90
5222;DHT22;2630;52.036;8.514;2022-07-03T00:35:54;18.90;99.90
5222;DHT22;2630;52.036;8.514;2022-07-03T00:38:22;19.00;99.90
5222;DHT22;2630;52.036;8.514;2022-07-03T00:43:15;18.90;99.90
5222;DHT22;2630;52.036;8.514;2022-07-03T00:45:45;18.80;99.90
5222;DHT22;2630;52.036;8.514;2022-07-03T00:48:13;18.90;99.90
5222;DHT22;2630;52.036;8.514;2022-07-03T00:50:46;19.10;99.90
5222;DHT22;2630;52.036;8.514;2022-07-03T00:53:13;19.00;99.90
5222;DHT22;2630;52.036;8.514;2022-07-03T00:55:45;18.90;99.90
5222;DHT22;2630;52.036;8.514;2022-07-03T00:58:17;19.00;99.90
5222;DHT22;2630;52.036;8.514;2022-07-03T01:00:44;19.00;99.90
5222;DHT22;2630;52.036;8.514;2022-07-03T01:03:15;18.90;99.90
5222;DHT22;2630;52.036;8.514;2022-07-03T01:05:48;18.80;99.90
5222;DHT22;2630;52.036;8.514;2022-07-03T01:14:15;18.60;99.90
5222;DHT22;2630;52.036;8.514;2022-07-03T01:17:05;18.50;99.90
5222;DHT22;2630;52.036;8.514;2022-07-03T01:19:40;18.50;99.90
5222;DHT22;2630;52.036;8.514;2022-07-03T01:22:33;18.50;99.90
5222;DHT22;2630;52.036;8.514;2022-07-03T01:27:35;18.30;99.90
5222;DHT22;2630;52.036;8.514;2022-07-03T01:30:09;18.40;99.90
5222;DHT22;2630;52.036;8.514;2022-07-03T01:32:43;18.40;99.90
5222;DHT22;2630;52.036;8.514;2022-07-03T01:35:17;18.30;99.90
5222;DHT22;2630;52.036;8.514;2022-07-03T01:40:11;18.20;99.90
5222;DHT22;2630;52.036;8.514;2022-07-03T01:42:40;18.10;99.90
5222;DHT22;2630;52.036;8.514;2022-07-03T01:45:09;18.10;99.90
5222;DHT22;2630;52.036;8.514;2022-07-03T01:47:37;18.00;99.90
5222;DHT22;2630;52.036;8.514;2022-07-03T01:50:08;17.90;99.90
5222;DHT22;2630;52.036;8.514;2022-07-03T01:55:02;17.90;99.90
5222;DHT22;2630;52.036;8.514;2022-07-03T01:57:50;17.80;99.90
5222;DHT22;2630;52.036;8.514;2022-07-03T02:00:18;17.70;99.90
5222;DHT22;2630;52.036;8.514;2022-07-03T02:08:03;17.70;99.90
5222;DHT22;2630;52.036;8.514;2022-07-03T02:10:34;17.60;99.90
5222;DHT22;2630;52.036;8.514;2022-07-03T02:13:08;17.60;99.90
5222;DHT22;2630;52.036;8.514;2022-07-03T02:15:42;17.50;99.90
5222;DHT22;2630;52.036;8.514;2022-07-03T02:23:29;17.50;99.90
5222;DHT22;2630;52.036;8.514;2022-07-03T02:25:59;17.50;99.90
5222;DHT22;2630;52.036;8.514;2022-07-03T02:28:54;17.50;99.90
5222;DHT22;2630;52.036;8.514;2022-07-03T02:31:24;17.60;99.90
5222;DHT22;2630;52.036;8.514;2022-07-03T02:33:55;17.50;99.90
5222;DHT22;2630;52.036;8.514;2022-07-03T02:36:23;17.50;99.90
5222;DHT22;2630;52.036;8.514;2022-07-03T02:38:55;17.50;99.90
5222;DHT22;2630;52.036;8.514;2022-07-03T02:41:49;17.50;99.90
5222;DHT22;2630;52.036;8.514;2022-07-03T02:44:46;17.50;99.90
5222;DHT22;2630;52.036;8.514;2022-07-03T02:47:20;17.50;99.90
5222;DHT22;2630;52.036;8.514;2022-07-03T02:55:40;17.40;99.90
5222;DHT22;2630;52.036;8.514;2022-07-03T03:01:03;17.40;99.90
5222;DHT22;2630;52.036;8.514;2022-07-03T03:03:32;17.40;99.90
5222;DHT22;2630;52.036;8.514;2022-07-03T03:06:03;17.40;99.90
5222;DHT22;2630;52.036;8.514;2022-07-03T03:11:09;17.30;99.90
5222;DHT22;2630;52.036;8.514;2022-07-03T03:13:38;17.40;99.90
5222;DHT22;2630;52.036;8.514;2022-07-03T03:16:11;17.40;99.90
5222;DHT22;2630;52.036;8.514;2022-07-03T03:18:39;17.40;99.90
5222;DHT22;2630;52.036;8.514;2022-07-03T03:21:15;17.30;99.90
5222;DHT22;2630;52.036;8.514;2022-07-03T03:23:44;17.40;99.90
5222;DHT22;2630;52.036;8.514;2022-07-03T03:28:39;16.50;99.90
5222;DHT22;2630;52.036;8.514;2022-07-03T03:31:07;16.20;99.90
5222;DHT22;2630;52.036;8.514;2022-07-03T03:33:42;16.20;99.90
5222;DHT22;2630;52.036;8.514;2022-07-03T03:36:09;15.90;99.90
5222;DHT22;2630;52.036;8.514;2022-07-03T03:41:03;15.80;99.90
5222;DHT22;2630;52.036;8.514;2022-07-03T03:43:30;15.80;99.90
5222;DHT22;2630;52.036;8.514;2022-07-03T03:45:56;15.80;99.90
5222;DHT22;2630;52.036;8.514;2022-07-03T03:53:15;16.80;99.90
5222;DHT22;2630;52.036;8.514;2022-07-03T03:55:59;17.10;99.90
5222;DHT22;2630;52.036;8.514;2022-07-03T03:58:27;17.50;99.90
5222;DHT22;2630;52.036;8.514;2022-07-03T04:00:55;18.20;99.90
5222;DHT22;2630;52.036;8.514;2022-07-03T04:10:39;20.10;99.90
5222;DHT22;2630;52.036;8.514;2022-07-03T04:13:04;20.60;99.90
5222;DHT22;2630;52.036;8.514;2022-07-03T04:17:56;21.00;99.90
5222;DHT22;2630;52.036;8.514;2022-07-03T04:20:22;21.30;99.90
5222;DHT22;2630;52.036;8.514;2022-07-03T04:22:47;21.30;99.90
5222;DHT22;2630;52.036;8.514;2022-07-03T04:27:41;20.70;99.90
5222;DHT22;2630;52.036;8.514;2022-07-03T04:30:07;20.40;99.90
5222;DHT22;2630;52.036;8.514;2022-07-03T04:32:36;19.90;99.90
5222;DHT22;2630;52.036;8.514;2022-07-03T04:37:28;19.40;99.90
5222;DHT22;2630;52.036;8.514;2022-07-03T04:39:54;19.20;99.90
5222;DHT22;2630;52.036;8.514;2022-07-03T04:56:56;17.90;99.90
5222;DHT22;2630;52.036;8.514;2022-07-03T04:59:21;17.80;99.90
5222;DHT22;2630;52.036;8.514;2022-07-03T05:01:47;17.90;99.90
5222;DHT22;2630;52.036;8.514;2022-07-03T05:09:06;18.10;99.90
5222;DHT22;2630;52.036;8.514;2022-07-03T05:13:58;18.20;99.90
5222;DHT22;2630;52.036;8.514;2022-07-03T05:18:50;18.40;99.90
5222;DHT22;2630;52.036;8.514;2022-07-03T05:23:41;18.50;99.90
5222;DHT22;2630;52.036;8.514;2022-07-03T05:28:33;18.70;99.90
5222;DHT22;2630;52.036;8.514;2022-07-03T05:30:58;18.70;99.90
5222;DHT22;2630;52.036;8.514;2022-07-03T05:33:24;18.70;99.90
5222;DHT22;2630;52.036;8.514;2022-07-03T05:35:50;19.00;99.90
5222;DHT22;2630;52.036;8.514;2022-07-03T05:41:01;19.10;99.90
5222;DHT22;2630;52.036;8.514;2022-07-03T05:43:26;19.30;99.90
5222;DHT22;2630;52.036;8.514;2022-07-03T05:50:44;19.70;99.90
5222;DHT22;2630;52.036;8.514;2022-07-03T05:53:09;19.80;99.90
5222;DHT22;2630;52.036;8.514;2022-07-03T06:00:27;20.00;99.90
5222;DHT22;2630;52.036;8.514;2022-07-03T06:05:20;20.20;99.90
5222;DHT22;2630;52.036;8.514;2022-07-03T06:10:11;20.50;99.90
5222;DHT22;2630;52.036;8.514;2022-07-03T06:12:37;20.60;99.90
5222;DHT22;2630;52.036;8.514;2022-07-03T06:15:03;20.90;99.90
5222;DHT22;2630;52.036;8.514;2022-07-03T06:32:05;22.60;99.90
5222;DHT22;2630;52.036;8.514;2022-07-03T06:39:23;22.60;99.90
5222;DHT22;2630;52.036;8.514;2022-07-03T06:41:48;22.70;99.90
5222;DHT22;2630;52.036;8.514;2022-07-03T06:51:32;22.70;99.90
5222;DHT22;2630;52.036;8.514;2022-07-03T06:56:25;22.90;99.90
5222;DHT22;2630;52.036;8.514;2022-07-03T07:01:16;23.10;99.90
5222;DHT22;2630;52.036;8.514;2022-07-03T07:03:42;23.20;99.90
5222;DHT22;2630;52.036;8.514;2022-07-03T07:18:18;28.10;99.90
5222;DHT22;2630;52.036;8.514;2022-07-03T07:20:43;28.00;99.90
5222;DHT22;2630;52.036;8.514;2022-07-03T07:23:09;27.70;99.90
5222;DHT22;2630;52.036;8.514;2022-07-03T07:28:00;26.80;99.90
5222;DHT22;2630;52.036;8.514;2022-07-03T07:30:26;26.50;99.90
5222;DHT22;2630;52.036;8.514;2022-07-03T07:35:17;25.50;99.90
5222;DHT22;2630;52.036;8.514;2022-07-03T07:37:43;25.20;99.90
5222;DHT22;2630;52.036;8.514;2022-07-03T07:40:09;25.00;99.90
5222;DHT22;2630;52.036;8.514;2022-07-03T07:47:27;24.90;99.90
5222;DHT22;2630;52.036;8.514;2022-07-03T07:49:53;24.90;99.90
5222;DHT22;2630;52.036;8.514;2022-07-03T07:52:18;24.90;99.90
5222;DHT22;2630;52.036;8.514;2022-07-03T07:54:44;24.90;99.90
5222;DHT22;2630;52.036;8.514;2022-07-03T07:57:10;25.00;99.90
5222;DHT22;2630;52.036;8.514;2022-07-03T07:59:35;25.10;99.90
5222;DHT22;2630;52.036;8.514;2022-07-03T08:07:30;25.20;99.90
5222;DHT22;2630;52.036;8.514;2022-07-03T08:09:55;25.30;99.90
5222;DHT22;2630;52.036;8.514;2022-07-03T08:12:21;25.40;99.90
5222;DHT22;2630;52.036;8.514;2022-07-03T08:14:46;25.50;99.90
5222;DHT22;2630;52.036;8.514;2022-07-03T08:17:12;25.50;99.90
5222;DHT22;2630;52.036;8.514;2022-07-03T08:19:38;25.50;99.90
5222;DHT22;2630;52.036;8.514;2022-07-03T08:22:03;25.30;99.90
5222;DHT22;2630;52.036;8.514;2022-07-03T08:26:55;25.30;99.90
5222;DHT22;2630;52.036;8.514;2022-07-03T08:31:46;25.40;99.90
5222;DHT22;2630;52.036;8.514;2022-07-03T08:39:08;25.40;99.90
5222;DHT22;2630;52.036;8.514;2022-07-03T08:41:36;25.40;99.90
5222;DHT22;2630;52.036;8.514;2022-07-03T08:44:03;25.40;99.90
5222;DHT22;2630;52.036;8.514;2022-07-03T08:51:24;25.60;99.90
5222;DHT22;2630;52.036;8.514;2022-07-03T08:53:56;25.60;99.90
5222;DHT22;2630;52.036;8.514;2022-07-03T08:58:50;27.80;99.90
5222;DHT22;2630;52.036;8.514;2022-07-03T09:01:18;30.00;99.90
5222;DHT22;2630;52.036;8.514;2022-07-03T09:03:45;31.40;99.40
5222;DHT22;2630;52.036;8.514;2022-07-03T09:06:13;32.60;94.80
5222;DHT22;2630;52.036;8.514;2022-07-03T09:08:40;34.10;90.10
5222;DHT22;2630;52.036;8.514;2022-07-03T09:11:10;36.10;80.10
5222;DHT22;2630;52.036;8.514;2022-07-03T09:16:02;37.60;71.80
5222;DHT22;2630;52.036;8.514;2022-07-03T09:18:39;38.80;65.50
5222;DHT22;2630;52.036;8.514;2022-07-03T09:23:36;41.80;54.30
5222;DHT22;2630;52.036;8.514;2022-07-03T09:26:03;42.10;49.80
5222;DHT22;2630;52.036;8.514;2022-07-03T09:28:50;41.80;52.80
5222;DHT22;2630;52.036;8.514;2022-07-03T09:31:20;42.70;49.30
5222;DHT22;2630;52.036;8.514;2022-07-03T09:36:45;43.80;47.80
5222;DHT22;2630;52.036;8.514;2022-07-03T09:39:27;44.10;47.30
5222;DHT22;2630;52.036;8.514;2022-07-03T09:41:58;43.60;44.40
5222;DHT22;2630;52.036;8.514;2022-07-03T09:44:36;44.10;43.30
5222;DHT22;2630;52.036;8.514;2022-07-03T09:49:45;40.30;44.50
5222;DHT22;2630;52.036;8.514;2022-07-03T09:54:52;39.60;48.40
5222;DHT22;2630;52.036;8.514;2022-07-03T09:57:19;40.70;48.90
5222;DHT22;2630;52.036;8.514;2022-07-03T09:59:45;41.10;45.90
5222;DHT22;2630;52.036;8.514;2022-07-03T10:02:10;41.80;46.20
5222;DHT22;2630;52.036;8.514;2022-07-03T10:04:36;41.10;43.90
5222;DHT22;2630;52.036;8.514;2022-07-03T10:07:03;41.10;45.10
5222;DHT22;2630;52.036;8.514;2022-07-03T10:09:33;41.30;43.50
5222;DHT22;2630;52.036;8.514;2022-07-03T10:12:01;41.40;43.90
5222;DHT22;2630;52.036;8.514;2022-07-03T10:14:31;41.30;44.50
5222;DHT22;2630;52.036;8.514;2022-07-03T10:16:57;42.00;42.90
5222;DHT22;2630;52.036;8.514;2022-07-03T10:19:29;42.10;43.30
5222;DHT22;2630;52.036;8.514;2022-07-03T10:22:02;42.70;43.90
5222;DHT22;2630;52.036;8.514;2022-07-03T10:24:32;42.50;46.80
5222;DHT22;2630;52.036;8.514;2022-07-03T10:26:58;42.50;44.30
5222;DHT22;2630;52.036;8.514;2022-07-03T10:29:26;42.60;43.70
5222;DHT22;2630;52.036;8.514;2022-07-03T10:34:20;40.30;43.40
5222;DHT22;2630;52.036;8.514;2022-07-03T10:36:52;38.90;48.40
5222;DHT22;2630;52.036;8.514;2022-07-03T10:39:29;37.50;46.70
5222;DHT22;2630;52.036;8.514;2022-07-03T10:41:56;36.00;48.10
5222;DHT22;2630;52.036;8.514;2022-07-03T10:47:36;33.40;50.40
5222;DHT22;2630;52.036;8.514;2022-07-03T10:57:26;31.80;55.50
5222;DHT22;2630;52.036;8.514;2022-07-03T11:07:33;32.00;54.00
5222;DHT22;2630;52.036;8.514;2022-07-03T11:29:03;29.00;57.70
5222;DHT22;2630;52.036;8.514;2022-07-03T11:31:28;28.90;57.50
5222;DHT22;2630;52.036;8.514;2022-07-03T11:46:21;27.80;64.10
5222;DHT22;2630;52.036;8.514;2022-07-03T11:48:48;28.10;65.40
5222;DHT22;2630;52.036;8.514;2022-07-03T11:51:14;28.30;63.50
5222;DHT22;2630;52.036;8.514;2022-07-03T12:08:44;28.60;60.60
5222;DHT22;2630;52.036;8.514;2022-07-03T12:11:14;28.40;63.20
5222;DHT22;2630;52.036;8.514;2022-07-03T12:16:11;28.20;64.00
5222;DHT22;2630;52.036;8.514;2022-07-03T12:21:15;28.00;62.70
5222;DHT22;2630;52.036;8.514;2022-07-03T12:26:33;28.10;60.60
5222;DHT22;2630;52.036;8.514;2022-07-03T12:34:01;28.70;62.90
5222;DHT22;2630;52.036;8.514;2022-07-03T12:38:55;28.60;64.90
5222;DHT22;2630;52.036;8.514;2022-07-03T12:41:22;28.60;65.70
5222;DHT22;2630;52.036;8.514;2022-07-03T12:43:49;28.60;64.60
5222;DHT22;2630;52.036;8.514;2022-07-03T12:48:49;28.70;66.60
5222;DHT22;2630;52.036;8.514;2022-07-03T12:53:42;28.80;63.80
5222;DHT22;2630;52.036;8.514;2022-07-03T12:56:10;28.80;65.20
5222;DHT22;2630;52.036;8.514;2022-07-03T12:58:39;29.00;66.00
5222;DHT22;2630;52.036;8.514;2022-07-03T13:01:29;29.10;63.30
5222;DHT22;2630;52.036;8.514;2022-07-03T13:03:56;29.40;63.50
5222;DHT22;2630;52.036;8.514;2022-07-03T13:06:22;29.60;62.00
5222;DHT22;2630;52.036;8.514;2022-07-03T13:11:38;29.30;64.80
5222;DHT22;2630;52.036;8.514;2022-07-03T13:19:08;29.30;66.00
5222;DHT22;2630;52.036;8.514;2022-07-03T13:21:34;29.30;67.80
5222;DHT22;2630;52.036;8.514;2022-07-03T13:24:00;29.20;65.20
5222;DHT22;2630;52.036;8.514;2022-07-03T13:26:25;29.00;69.10
5222;DHT22;2630;52.036;8.514;2022-07-03T13:28:51;28.70;65.70
5222;DHT22;2630;52.036;8.514;2022-07-03T13:33:42;28.40;69.10
5222;DHT22;2630;52.036;8.514;2022-07-03T13:36:08;28.50;71.10
5222;DHT22;2630;52.036;8.514;2022-07-03T13:38:34;28.50;67.90
5222;DHT22;2630;52.036;8.514;2022-07-03T13:40:59;28.20;64.30
5222;DHT22;2630;52.036;8.514;2022-07-03T13:43:25;28.20;69.30
5222;DHT22;2630;52.036;8.514;2022-07-03T13:48:16;29.10;68.30
5222;DHT22;2630;52.036;8.514;2022-07-03T13:50:43;29.10;66.50
5222;DHT22;2630;52.036;8.514;2022-07-03T13:53:08;29.30;69.70
5222;DHT22;2630;52.036;8.514;2022-07-03T13:55:34;29.10;67.80
5222;DHT22;2630;52.036;8.514;2022-07-03T13:58:00;28.80;69.40
5222;DHT22;2630;52.036;8.514;2022-07-03T14:00:30;28.50;70.00
5222;DHT22;2630;52.036;8.514;2022-07-03T14:05:22;28.00;67.30
5222;DHT22;2630;52.036;8.514;2022-07-03T14:07:47;27.70;69.10
5222;DHT22;2630;52.036;8.514;2022-07-03T14:10:14;27.30;71.50
5222;DHT22;2630;52.036;8.514;2022-07-03T14:15:06;27.00;76.90
5222;DHT22;2630;52.036;8.514;2022-07-03T14:17:32;27.00;78.00
5222;DHT22;2630;52.036;8.514;2022-07-03T14:19:58;27.20;79.80
5222;DHT22;2630;52.036;8.514;2022-07-03T14:27:15;27.60;82.30
5222;DHT22;2630;52.036;8.514;2022-07-03T14:29:59;27.60;80.80
5222;DHT22;2630;52.036;8.514;2022-07-03T14:32:43;27.40;81.90
5222;DHT22;2630;52.036;8.514;2022-07-03T14:35:09;27.20;79.20
5222;DHT22;2630;52.036;8.514;2022-07-03T14:42:26;27.00;87.80
5222;DHT22;2630;52.036;8.514;2022-07-03T14:44:52;27.00;87.30
5222;DHT22;2630;52.036;8.514;2022-07-03T14:47:18;26.90;86.80
5222;DHT22;2630;52.036;8.514;2022-07-03T14:49:44;26.90;86.10
5222;DHT22;2630;52.036;8.514;2022-07-03T14:54:36;26.90;92.80
5222;DHT22;2630;52.036;8.514;2022-07-03T14:57:07;26.90;93.50
5222;DHT22;2630;52.036;8.514;2022-07-03T15:02:22;26.70;92.60
5222;DHT22;2630;52.036;8.514;2022-07-03T15:07:27;26.60;91.60
5222;DHT22;2630;52.036;8.514;2022-07-03T15:10:14;26.40;91.80
5222;DHT22;2630;52.036;8.514;2022-07-03T15:15:14;26.40;94.10
5222;DHT22;2630;52.036;8.514;2022-07-03T15:22:39;26.40;96.40
5222;DHT22;2630;52.036;8.514;2022-07-03T15:25:07;26.40;93.80
5222;DHT22;2630;52.036;8.514;2022-07-03T15:27:32;26.40;95.10
5222;DHT22;2630;52.036;8.514;2022-07-03T15:32:24;26.30;92.60
5222;DHT22;2630;52.036;8.514;2022-07-03T15:34:50;26.20;92.50
5222;DHT22;2630;52.036;8.514;2022-07-03T15:39:54;26.20;94.10
5222;DHT22;2630;52.036;8.514;2022-07-03T15:42:54;26.10;92.40
5222;DHT22;2630;52.036;8.514;2022-07-03T15:53:20;26.10;94.30
5222;DHT22;2630;52.036;8.514;2022-07-03T15:55:48;26.10;92.30
5222;DHT22;2630;52.036;8.514;2022-07-03T15:58:18;26.20;91.80
5222;DHT22;2630;52.036;8.514;2022-07-03T16:08:31;26.20;89.50
5222;DHT22;2630;52.036;8.514;2022-07-03T16:10:57;26.20;90.30
5222;DHT22;2630;52.036;8.514;2022-07-03T16:13:25;26.10;91.20
5222;DHT22;2630;52.036;8.514;2022-07-03T16:20:44;25.80;91.80
5222;DHT22;2630;52.036;8.514;2022-07-03T16:23:11;25.70;90.90
5222;DHT22;2630;52.036;8.514;2022-07-03T16:25:37;25.70;92.80
5222;DHT22;2630;52.036;8.514;2022-07-03T16:30:31;25.40;92.00
5222;DHT22;2630;52.036;8.514;2022-07-03T16:35:40;25.30;92.30
5222;DHT22;2630;52.036;8.514;2022-07-03T16:43:04;25.40;93.00
5222;DHT22;2630;52.036;8.514;2022-07-03T16:45:33;25.50;92.30
5222;DHT22;2630;52.036;8.514;2022-07-03T16:48:10;25.60;93.40
5222;DHT22;2630;52.036;8.514;2022-07-03T16:53:02;25.70;94.60
5222;DHT22;2630;52.036;8.514;2022-07-03T16:57:56;25.60;93.40
5222;DHT22;2630;52.036;8.514;2022-07-03T17:00:27;25.70;95.10
5222;DHT22;2630;52.036;8.514;2022-07-03T17:02:54;25.70;93.80
5222;DHT22;2630;52.036;8.514;2022-07-03T17:05:23;25.60;94.20
5222;DHT22;2630;52.036;8.514;2022-07-03T17:07:51;25.50;94.10
5222;DHT22;2630;52.036;8.514;2022-07-03T17:10:18;25.50;93.70
5222;DHT22;2630;52.036;8.514;2022-07-03T17:12:46;25.50;94.30
5222;DHT22;2630;52.036;8.514;2022-07-03T17:15:13;25.40;95.30
5222;DHT22;2630;52.036;8.514;2022-07-03T17:17:40;25.30;94.10
5222;DHT22;2630;52.036;8.514;2022-07-03T17:20:15;25.20;94.60
5222;DHT22;2630;52.036;8.514;2022-07-03T17:22:43;25.00;94.40
5222;DHT22;2630;52.036;8.514;2022-07-03T17:25:21;24.80;95.00
5222;DHT22;2630;52.036;8.514;2022-07-03T17:27:47;24.70;95.50
5222;DHT22;2630;52.036;8.514;2022-07-03T17:30:14;24.50;95.20
5222;DHT22;2630;52.036;8.514;2022-07-03T17:32:42;24.40;97.30
5222;DHT22;2630;52.036;8.514;2022-07-03T17:35:23;24.20;96.30
5222;DHT22;2630;52.036;8.514;2022-07-03T17:37:51;24.20;97.20
5222;DHT22;2630;52.036;8.514;2022-07-03T17:40:18;24.00;98.30
5222;DHT22;2630;52.036;8.514;2022-07-03T17:42:44;24.10;98.60
5222;DHT22;2630;52.036;8.514;2022-07-03T17:45:12;24.00;98.10
5222;DHT22;2630;52.036;8.514;2022-07-03T17:47:39;23.90;98.90
5222;DHT22;2630;52.036;8.514;2022-07-03T17:50:05;23.90;99.60
5222;DHT22;2630;52.036;8.514;2022-07-03T17:52:32;24.00;99.90
5222;DHT22;2630;52.036;8.514;2022-07-03T17:54:59;24.00;99.90
5222;DHT22;2630;52.036;8.514;2022-07-03T17:57:26;24.10;99.90
5222;DHT22;2630;52.036;8.514;2022-07-03T18:00:05;24.10;99.90
5222;DHT22;2630;52.036;8.514;2022-07-03T18:04:57;24.10;99.90
5222;DHT22;2630;52.036;8.514;2022-07-03T18:10:22;24.60;99.90
5222;DHT22;2630;52.036;8.514;2022-07-03T18:13:44;24.80;99.90
5222;DHT22;2630;52.036;8.514;2022-07-03T18:18:33;24.80;99.90
5222;DHT22;2630;52.036;8.514;2022-07-03T18:20:59;24.70;99.90
5222;DHT22;2630;52.036;8.514;2022-07-03T18:23:32;24.60;99.90
5222;DHT22;2630;52.036;8.514;2022-07-03T18:26:01;24.60;99.90
5222;DHT22;2630;52.036;8.514;2022-07-03T18:28:28;24.70;99.90
5222;DHT22;2630;52.036;8.514;2022-07-03T18:30:56;24.80;99.90
5222;DHT22;2630;52.036;8.514;2022-07-03T18:33:23;24.70;99.90
5222;DHT22;2630;52.036;8.514;2022-07-03T18:35:50;24.70;99.90
5222;DHT22;2630;52.036;8.514;2022-07-03T18:38:17;24.60;99.90
5222;DHT22;2630;52.036;8.514;2022-07-03T18:40:43;24.60;99.90
5222;DHT22;2630;52.036;8.514;2022-07-03T18:43:11;24.60;99.90
5222;DHT22;2630;52.036;8.514;2022-07-03T18:45:40;24.50;99.90
5222;DHT22;2630;52.036;8.514;2022-07-03T18:50:34;24.40;99.90
5222;DHT22;2630;52.036;8.514;2022-07-03T18:53:12;24.30;99.90
5222;DHT22;2630;52.036;8.514;2022-07-03T18:56:00;24.20;99.90
5222;DHT22;2630;52.036;8.514;2022-07-03T18:58:39;24.10;99.90
5222;DHT22;2630;52.036;8.514;2022-07-03T19:01:07;24.00;99.90
5222;DHT22;2630;52.036;8.514;2022-07-03T19:03:52;24.00;99.90
5222;DHT22;2630;52.036;8.514;2022-07-03T19:06:28;24.00;99.90
5222;DHT22;2630;52.036;8.514;2022-07-03T19:09:06;23.90;99.90
5222;DHT22;2630;52.036;8.514;2022-07-03T19:14:12;23.60;99.90
5222;DHT22;2630;52.036;8.514;2022-07-03T19:19:11;23.70;99.90
5222;DHT22;2630;52.036;8.514;2022-07-03T19:26:29;23.30;99.90
5222;DHT22;2630;52.036;8.514;2022-07-03T19:33:46;22.90;99.90
5222;DHT22;2630;52.036;8.514;2022-07-03T19:36:12;22.80;99.90
5222;DHT22;2630;52.036;8.514;2022-07-03T19:38:38;22.60;99.90
5222;DHT22;2630;52.036;8.514;2022-07-03T19:41:04;22.50;99.90
5222;DHT22;2630;52.036;8.514;2022-07-03T19:43:30;22.50;99.90
5222;DHT22;2630;52.036;8.514;2022-07-03T19:45:56;22.50;99.90
5222;DHT22;2630;52.036;8.514;2022-07-03T19:48:22;22.40;99.90
5222;DHT22;2630;52.036;8.514;2022-07-03T20:00:33;22.20;99.90
5222;DHT22;2630;52.036;8.514;2022-07-03T20:02:59;22.00;99.90
5222;DHT22;2630;52.036;8.514;2022-07-03T20:05:25;22.00;99.90
5222;DHT22;2630;52.036;8.514;2022-07-03T20:12:43;21.90;99.90
5222;DHT22;2630;52.036;8.514;2022-07-03T20:15:09;21.80;99.90
5222;DHT22;2630;52.036;8.514;2022-07-03T20:29:46;21.50;99.90
5222;DHT22;2630;52.036;8.514;2022-07-03T20:32:17;21.40;99.90
5222;DHT22;2630;52.036;8.514;2022-07-03T20:34:43;21.30;99.90
5222;DHT22;2630;52.036;8.514;2022-07-03T20:39:36;21.30;99.90
5222;DHT22;2630;52.036;8.514;2022-07-03T20:44:29;21.20;99.90
5222;DHT22;2630;52.036;8.514;2022-07-03T20:49:20;21.20;99.90
5222;DHT22;2630;52.036;8.514;2022-07-03T20:51:46;21.20;99.90
5222;DHT22;2630;52.036;8.514;2022-07-03T20:54:12;21.20;99.90
5222;DHT22;2630;52.036;8.514;2022-07-03T21:01:30;21.10;99.90
5222;DHT22;2630;52.036;8.514;2022-07-03T21:03:56;21.00;99.90
5222;DHT22;2630;52.036;8.514;2022-07-03T21:06:23;21.00;99.90
5222;DHT22;2630;52.036;8.514;2022-07-03T21:11:20;20.90;99.90
5222;DHT22;2630;52.036;8.514;2022-07-03T21:14:04;20.80;99.90
5222;DHT22;2630;52.036;8.514;2022-07-03T21:19:01;20.60;99.90
5222;DHT22;2630;52.036;8.514;2022-07-03T21:23:55;20.50;99.90
5222;DHT22;2630;52.036;8.514;2022-07-03T21:26:21;20.40;99.90
5222;DHT22;2630;52.036;8.514;2022-07-03T21:28:47;20.40;99.90
5222;DHT22;2630;52.036;8.514;2022-07-03T21:31:13;20.30;99.90
5222;DHT22;2630;52.036;8.514;2022-07-03T21:33:39;20.30;99.90
5222;DHT22;2630;52.036;8.514;2022-07-03T21:36:05;20.30;99.90
5222;DHT22;2630;52.036;8.514;2022-07-03T21:38:31;20.20;99.90
5222;DHT22;2630;52.036;8.514;2022-07-03T21:40:56;20.20;99.90
5222;DHT22;2630;52.036;8.514;2022-07-03T21:43:22;20.20;99.90
5222;DHT22;2630;52.036;8.514;2022-07-03T21:45:49;20.00;99.90
5222;DHT22;2630;52.036;8.514;2022-07-03T21:48:15;20.00;99.90
5222;DHT22;2630;52.036;8.514;2022-07-03T21:50:40;20.10;99.90
5222;DHT22;2630;52.036;8.514;2022-07-03T21:53:06;20.10;99.90
5222;DHT22;2630;52.036;8.514;2022-07-03T21:55:31;20.00;99.90
5222;DHT22;2630;52.036;8.514;2022-07-03T21:57:57;20.00;99.90
5222;DHT22;2630;52.036;8.514;2022-07-03T22:00:23;19.90;99.90
5222;DHT22;2630;52.036;8.514;2022-07-03T22:02:49;19.80;99.90
5222;DHT22;2630;52.036;8.514;2022-07-03T22:07:40;19.70;99.90
5222;DHT22;2630;52.036;8.514;2022-07-03T22:12:32;19.60;99.90
5222;DHT22;2630;52.036;8.514;2022-07-03T22:14:59;19.50;99.90
5222;DHT22;2630;52.036;8.514;2022-07-03T22:17:27;19.40;99.90
5222;DHT22;2630;52.036;8.514;2022-07-03T22:19:53;19.40;99.90
5222;DHT22;2630;52.036;8.514;2022-07-03T22:24:45;19.30;99.90
5222;DHT22;2630;52.036;8.514;2022-07-03T22:27:11;19.30;99.90
5222;DHT22;2630;52.036;8.514;2022-07-03T22:29:36;19.20;99.90
5222;DHT22;2630;52.036;8.514;2022-07-03T22:32:03;19.20;99.90
5222;DHT22;2630;52.036;8.514;2022-07-03T22:34:29;19.10;99.90
5222;DHT22;2630;52.036;8.514;2022-07-03T22:36:55;19.00;99.90
5222;DHT22;2630;52.036;8.514;2022-07-03T22:41:57;18.80;99.90
5222;DHT22;2630;52.036;8.514;2022-07-03T22:44:23;18.70;99.90
5222;DHT22;2630;52.036;8.514;2022-07-03T22:46:50;18.70;99.90
5222;DHT22;2630;52.036;8.514;2022-07-03T22:49:16;18.60;99.90
5222;DHT22;2630;52.036;8.514;2022-07-03T22:51:42;18.50;99.90
5222;DHT22;2630;52.036;8.514;2022-07-03T22:54:08;18.50;99.90
5222;DHT22;2630;52.036;8.514;2022-07-03T22:56:34;18.40;99.90
5222;DHT22;2630;52.036;8.514;2022-07-03T22:59:00;18.30;99.90
5222;DHT22;2630;52.036;8.514;2022-07-03T23:01:27;18.20;99.90
5222;DHT22;2630;52.036;8.514;2022-07-03T23:03:52;18.30;99.90
5222;DHT22;2630;52.036;8.514;2022-07-03T23:08:44;18.00;99.90
5222;DHT22;2630;52.036;8.514;2022-07-03T23:11:10;18.00;99.90
5222;DHT22;2630;52.036;8.514;2022-07-03T23:13:36;18.00;99.90
5222;DHT22;2630;52.036;8.514;2022-07-03T23:16:02;18.00;99.90
5222;DHT22;2630;52.036;8.514;2022-07-03T23:18:27;17.90;99.90
5222;DHT22;2630;52.036;8.514;2022-07-03T23:20:53;17.80;99.90
5222;DHT22;2630;52.036;8.514;2022-07-03T23:23:18;17.80;99.90
5222;DHT22;2630;52.036;8.514;2022-07-03T23:25:44;17.80;99.90
5222;DHT22;2630;52.036;8.514;2022-07-03T23:28:10;17.80;99.90
5222;DHT22;2630;52.036;8.514;2022-07-03T23:30:36;17.70;99.90
5222;DHT22;2630;52.036;8.514;2022-07-03T23:33:01;17.70;99.90
5222;DHT22;2630;52.036;8.514;2022-07-03T23:35:27;17.70;99.90
5222;DHT22;2630;52.036;8.514;2022-07-03T23:37:52;17.70;99.90
5222;DHT22;2630;52.036;8.514;2022-07-03T23:40:18;17.60;99.90
5222;DHT22;2630;52.036;8.514;2022-07-03T23:42:44;17.50;99.90
5222;DHT22;2630;52.036;8.514;2022-07-03T23:45:10;17.40;99.90
5222;DHT22;2630;52.036;8.514;2022-07-03T23:47:36;17.40;99.90
5222;DHT22;2630;52.036;8.514;2022-07-03T23:50:02;17.50;99.90
5222;DHT22;2630;52.036;8.514;2022-07-03T23:52:46;17.50;99.90
5222;DHT22;2630;52.036;8.514;2022-07-03T23:55:13;17.50;99.90
5222;DHT22;2630;52.036;8.514;2022-07-03T23:57:38;17.40;99.90
